Time;durP1;ratioP1;P1;durP2;ratioP2;P2;SDS_P1;SDS_P2;PMS_P1;PMS_P2;Temp;Humidity;BMP_temperature;BMP_pressure;BME280_temperature;BME280_humidity;BME280_pressure;Samples;Min_cycle;Max_cycle;Signal;HPM_P1;HPM_P2
2021/08/15 00:03:08;;;;;;;8.70;6.10;;;;;;;19.36;100.00;95148.34;10410165;28;20778;-90
2021/08/15 00:08:08;;;;;;;11.85;6.35;;;;;;;19.32;100.00;95144.66;10412448;28;20454;-88
2021/08/15 00:13:10;;;;;;;10.32;5.70;;;;;;;19.17;100.00;95145.91;10405152;28;20069;-88
2021/08/15 00:18:10;;;;;;;11.70;6.60;;;;;;;19.02;100.00;95138.97;10401995;28;20120;-88
2021/08/15 00:23:11;;;;;;;9.97;6.00;;;;;;;18.93;100.00;95139.75;10403702;28;20268;-90
2021/08/15 00:28:11;;;;;;;9.50;6.10;;;;;;;18.82;100.00;95146.56;10405156;28;20021;-90
2021/08/15 00:33:12;;;;;;;9.52;6.38;;;;;;;18.55;100.00;95144.88;10417241;28;20303;-90
2021/08/15 00:38:13;;;;;;;8.57;5.37;;;;;;;18.36;100.00;95142.41;10414026;28;20064;-91
2021/08/15 00:43:14;;;;;;;8.15;5.80;;;;;;;18.24;100.00;95148.44;10412291;28;20427;-87
2021/08/15 00:48:14;;;;;;;8.70;6.47;;;;;;;18.23;100.00;95141.38;10411085;28;20033;-88
2021/08/15 00:53:14;;;;;;;7.05;5.22;;;;;;;18.26;100.00;95133.38;10412761;28;20025;-90
2021/08/15 00:58:15;;;;;;;7.90;5.70;;;;;;;18.34;100.00;95131.03;10415205;28;20075;-91
2021/08/15 01:03:17;;;;;;;8.33;5.93;;;;;;;18.40;100.00;95124.31;10415213;28;20693;-89
2021/08/15 01:08:18;;;;;;;10.15;5.72;;;;;;;18.50;100.00;95131.41;10421053;28;20025;-91
2021/08/15 01:13:18;;;;;;;14.33;7.10;;;;;;;18.53;100.00;95128.06;10423421;28;20670;-91
2021/08/15 01:18:22;;;;;;;7.47;6.23;;;;;;;18.59;100.00;95129.53;10413591;28;20132;-92
2021/08/15 01:23:22;;;;;;;11.05;6.20;;;;;;;18.55;100.00;95139.44;10417625;28;20276;-91
2021/08/15 01:28:23;;;;;;;10.10;5.45;;;;;;;18.59;100.00;95138.50;10414706;28;20116;-91
2021/08/15 01:33:24;;;;;;;8.67;6.07;;;;;;;18.59;100.00;95138.50;10417165;28;20068;-91
2021/08/15 01:38:28;;;;;;;7.40;5.45;;;;;;;18.52;100.00;95132.72;10427630;28;20312;-91
2021/08/15 01:43:29;;;;;;;8.55;5.93;;;;;;;18.30;100.00;95139.00;10418571;28;20113;-92
2021/08/15 01:48:29;;;;;;;9.00;5.47;;;;;;;18.26;100.00;95133.38;10412299;28;20023;-91
2021/08/15 01:53:29;;;;;;;7.90;5.83;;;;;;;18.20;100.00;95137.34;10414052;28;20025;-91
2021/08/15 01:58:30;;;;;;;9.13;6.03;;;;;;;18.23;100.00;95142.16;10414541;28;20280;-91
2021/08/15 02:03:30;;;;;;;10.73;6.65;;;;;;;18.28;100.00;95141.25;10435487;28;20018;-89
2021/08/15 02:08:31;;;;;;;12.27;6.00;;;;;;;18.27;100.00;95140.44;10412916;28;20032;-91
2021/08/15 02:13:31;;;;;;;11.07;6.00;;;;;;;18.25;100.00;95139.13;10412212;28;20541;-89
2021/08/15 02:18:32;;;;;;;11.52;6.13;;;;;;;18.15;100.00;95140.19;10411078;28;20291;-90
2021/08/15 02:23:34;;;;;;;10.32;5.80;;;;;;;18.21;100.00;95133.53;10410766;28;20105;-90
2021/08/15 02:28:34;;;;;;;11.32;5.85;;;;;;;18.24;100.00;95138.34;10412376;28;20033;-90
2021/08/15 02:33:34;;;;;;;11.93;5.77;;;;;;;18.20;100.00;95139.28;10411020;28;20029;-90
2021/08/15 02:38:35;;;;;;;11.00;6.77;;;;;;;18.20;100.00;95133.84;10410252;28;20799;-90
2021/08/15 02:43:35;;;;;;;9.37;6.43;;;;;;;18.17;100.00;95131.72;10410107;28;20268;-89
2021/08/15 02:48:37;;;;;;;13.47;6.43;;;;;;;18.14;100.00;95135.06;10409620;28;20017;-90
2021/08/15 02:53:38;;;;;;;9.35;6.22;;;;;;;18.08;100.00;95135.22;10409916;28;20021;-91
2021/08/15 02:58:39;;;;;;;9.47;5.63;;;;;;;18.04;100.00;95133.41;10408641;28;20025;-91
2021/08/15 03:03:39;;;;;;;15.00;7.50;;;;;;;18.06;100.00;95129.28;10413697;28;20268;-91
2021/08/15 03:08:40;;;;;;;9.13;6.80;;;;;;;18.11;100.00;95131.06;10409163;28;20083;-91
2021/08/15 03:13:40;;;;;;;15.48;6.85;;;;;;;18.13;100.00;95137.00;10409163;28;20024;-90
2021/08/15 03:18:42;;;;;;;13.27;6.83;;;;;;;18.08;100.00;95132.50;10408210;28;20040;-91
2021/08/15 03:23:43;;;;;;;9.75;6.43;;;;;;;18.06;100.00;95137.44;10407082;28;20017;-91
2021/08/15 03:28:43;;;;;;;10.48;5.70;;;;;;;18.12;100.00;95132.66;10409271;28;20025;-91
2021/08/15 03:33:44;;;;;;;10.40;7.05;;;;;;;18.00;100.00;95144.13;10410188;28;20025;-88
2021/08/15 03:38:44;;;;;;;8.77;6.20;;;;;;;18.03;100.00;95142.69;10410032;28;20124;-90
2021/08/15 03:43:44;;;;;;;9.03;6.20;;;;;;;17.98;100.00;95146.34;10408549;28;20071;-90
2021/08/15 03:48:45;;;;;;;9.70;6.43;;;;;;;17.87;100.00;95153.91;10409083;28;20022;-90
2021/08/15 03:53:45;;;;;;;10.87;7.70;;;;;;;17.79;100.00;95154.66;10432478;28;20052;-91
2021/08/15 03:58:46;;;;;;;11.80;7.77;;;;;;;17.52;100.00;95147.41;10405798;28;20280;-89
2021/08/15 04:03:46;;;;;;;14.38;8.73;;;;;;;17.30;100.00;95151.69;10405994;28;20030;-91
2021/08/15 04:08:48;;;;;;;10.32;7.93;;;;;;;17.30;100.00;95148.19;10404167;28;20025;-87
2021/08/15 04:13:48;;;;;;;10.27;7.68;;;;;;;17.30;100.00;95150.91;10402499;28;20026;-87
2021/08/15 04:18:48;;;;;;;13.57;7.37;;;;;;;17.26;100.00;95150.69;10402790;28;20495;-88
2021/08/15 04:23:49;;;;;;;13.07;9.07;;;;;;;17.33;100.00;95148.38;10401637;28;20268;-87
2021/08/15 04:28:49;;;;;;;13.82;9.00;;;;;;;17.32;100.00;95151.41;10401870;28;20260;-88
2021/08/15 04:33:50;;;;;;;12.73;9.43;;;;;;;17.41;100.00;95160.41;10402447;28;20547;-88
2021/08/15 04:38:50;;;;;;;13.83;8.87;;;;;;;17.32;100.00;95152.19;10403876;28;20034;-88
2021/08/15 04:43:51;;;;;;;13.23;9.13;;;;;;;17.33;100.00;95159.25;10406112;28;20264;-89
2021/08/15 04:48:51;;;;;;;15.65;9.18;;;;;;;17.48;100.00;95157.28;10411755;28;20026;-90
2021/08/15 04:53:51;;;;;;;19.53;9.13;;;;;;;17.77;100.00;95160.41;10410953;28;20029;-89
2021/08/15 04:58:52;;;;;;;15.97;9.83;;;;;;;18.16;100.00;95166.28;10405226;28;20292;-90
2021/08/15 05:03:53;;;;;;;16.00;9.30;;;;;;;18.63;100.00;95165.91;10407637;28;20064;-90
2021/08/15 05:08:53;;;;;;;15.67;9.20;;;;;;;19.20;100.00;95167.88;10412641;28;20029;-90
2021/08/15 05:13:53;;;;;;;13.87;9.10;;;;;;;19.60;100.00;95166.97;10417713;28;20111;-87
2021/08/15 05:18:54;;;;;;;19.17;8.27;;;;;;;20.06;100.00;95178.38;10405830;28;20655;-88
2021/08/15 05:23:54;;;;;;;13.10;8.17;;;;;;;20.84;100.00;95171.94;10410488;28;20269;-88
2021/08/15 05:28:54;;;;;;;18.97;10.33;;;;;;;21.37;96.46;95179.84;10407575;28;20358;-88
2021/08/15 05:33:55;;;;;;;17.47;8.27;;;;;;;21.55;91.92;95177.84;10408492;28;20284;-88
2021/08/15 05:38:55;;;;;;;10.15;7.25;;;;;;;22.67;84.30;95175.22;10416266;28;20075;-88
2021/08/15 05:44:15;;;;;;;14.47;7.37;;;;;;;23.92;74.92;95168.56;10416823;28;20029;-88
2021/08/15 05:49:15;;;;;;;13.73;6.38;;;;;;;24.04;68.09;95176.75;10418825;28;20029;-88
2021/08/15 05:54:16;;;;;;;14.77;7.03;;;;;;;24.66;64.36;95168.22;10422248;28;20488;-88
2021/08/15 05:59:16;;;;;;;14.17;7.13;;;;;;;25.80;58.52;95162.25;10416763;28;20688;-89
2021/08/15 06:04:17;;;;;;;18.08;6.60;;;;;;;26.71;53.63;95160.13;10424950;28;20287;-90
2021/08/15 06:09:17;;;;;;;11.02;6.13;;;;;;;27.60;49.49;95151.69;10414231;28;20476;-88
2021/08/15 06:14:18;;;;;;;9.43;6.13;;;;;;;27.96;47.40;95149.41;10408098;28;20033;-93
2021/08/15 06:19:20;;;;;;;9.18;6.72;;;;;;;28.25;45.60;95155.31;10390846;28;20030;-88
2021/08/15 06:24:49;;;;;;;9.90;6.28;;;;;;;29.30;43.23;95135.00;10408124;28;20483;-92
2021/08/15 06:29:50;;;;;;;11.38;6.18;;;;;;;30.23;40.72;95136.72;10388658;28;20649;-88
2021/08/15 06:34:50;;;;;;;12.33;5.77;;;;;;;30.98;39.07;95149.97;10407458;28;20136;-88
2021/08/15 06:39:51;;;;;;;11.37;5.33;;;;;;;31.14;37.29;95142.03;10406925;28;20041;-89
2021/08/15 06:44:51;;;;;;;7.67;4.20;;;;;;;31.59;36.61;95140.84;10405721;28;20279;-89
2021/08/15 06:49:55;;;;;;;12.13;5.30;;;;;;;32.62;34.90;95138.84;10407495;28;20341;-89
2021/08/15 06:54:59;;;;;;;10.75;5.07;;;;;;;33.03;33.96;95129.03;10405340;28;20293;-89
2021/08/15 07:00:02;;;;;;;10.85;5.57;;;;;;;32.42;33.95;95133.03;10405948;28;20444;-88
2021/08/15 07:05:08;;;;;;;9.60;5.93;;;;;;;32.36;34.10;95134.63;10406768;28;20030;-87
2021/08/15 07:10:09;;;;;;;7.60;5.30;;;;;;;33.88;32.88;95123.13;10405661;28;20060;-88
2021/08/15 07:15:10;;;;;;;14.57;6.05;;;;;;;33.32;33.15;95121.25;10405611;28;20413;-88
2021/08/15 07:20:12;;;;;;;8.40;5.57;;;;;;;34.78;31.21;95121.97;10404598;28;20036;-87
2021/08/15 07:25:13;;;;;;;10.23;4.82;;;;;;;35.02;30.83;95116.44;10404124;28;20519;-88
2021/08/15 07:30:15;;;;;;;8.23;5.10;;;;;;;35.16;29.48;95116.19;10412048;28;20029;-92
2021/08/15 07:35:16;;;;;;;14.05;4.68;;;;;;;36.02;29.11;95115.91;10416225;28;20057;-90
2021/08/15 07:40:17;;;;;;;7.47;4.28;;;;;;;37.11;28.02;95107.50;10419536;28;20029;-91
2021/08/15 07:45:20;;;;;;;7.68;4.93;;;;;;;37.55;27.16;95109.22;10418387;28;20025;-92
2021/08/15 07:50:21;;;;;;;7.68;4.32;;;;;;;38.09;26.15;95102.19;10414221;28;20033;-92
2021/08/15 07:55:22;;;;;;;9.18;4.20;;;;;;;37.78;25.83;95100.63;10413823;28;20116;-92
2021/08/15 08:00:23;;;;;;;7.15;3.95;;;;;;;37.87;26.33;95090.78;10409984;28;20029;-92
2021/08/15 08:05:24;;;;;;;7.38;3.88;;;;;;;37.70;26.39;95087.22;10407202;28;20488;-89
2021/08/15 08:10:24;;;;;;;11.20;4.00;;;;;;;39.15;25.02;95092.97;10406248;28;20029;-89
2021/08/15 08:15:24;;;;;;;13.03;4.33;;;;;;;39.83;24.52;95089.88;10405240;28;20272;-89
2021/08/15 08:20:28;;;;;;;5.25;3.22;;;;;;;40.42;23.05;95087.28;10406653;28;20272;-89
2021/08/15 08:25:28;;;;;;;6.15;3.17;;;;;;;41.20;22.22;95083.88;10405579;28;20128;-88
2021/08/15 08:30:28;;;;;;;4.85;3.50;;;;;;;41.26;22.11;95065.84;10405102;28;20036;-88
2021/08/15 08:35:30;;;;;;;3.50;3.20;;;;;;;41.42;21.98;95059.19;10406909;28;20491;-88
2021/08/15 08:40:30;;;;;;;8.10;3.88;;;;;;;41.32;21.63;95054.72;10409487;28;20303;-88
2021/08/15 08:45:35;;;;;;;5.35;2.90;;;;;;;42.06;20.20;95053.97;10409888;28;20033;-88
2021/08/15 08:50:36;;;;;;;12.63;2.72;;;;;;;40.09;20.60;95045.50;10409980;28;20018;-89
2021/08/15 08:55:36;;;;;;;5.13;2.70;;;;;;;39.14;20.77;95046.41;10414186;28;20132;-89
2021/08/15 09:00:37;;;;;;;6.77;2.70;;;;;;;38.46;23.09;95036.13;10419273;28;20404;-88
2021/08/15 09:05:37;;;;;;;6.60;3.50;;;;;;;38.45;22.61;95031.72;10429573;28;20341;-89
2021/08/15 09:10:39;;;;;;;7.00;2.60;;;;;;;39.88;21.18;95018.91;10415447;28;20017;-89
2021/08/15 09:15:54;;;;;;;3.08;2.40;;;;;;;41.28;20.54;95009.78;10415482;28;20272;-89
2021/08/15 09:20:54;;;;;;;6.55;2.40;;;;;;;41.46;20.38;95022.31;10415467;28;20495;-89
2021/08/15 09:26:18;;;;;;;4.93;2.63;;;;;;;42.73;19.82;95011.72;10416154;28;20032;-88
2021/08/15 09:31:31;;;;;;;6.70;2.22;;;;;;;43.68;18.65;95003.72;10416117;28;20288;-90
2021/08/15 09:36:42;;;;;;;6.80;2.97;;;;;;;40.80;20.49;95003.72;10413890;28;20452;-90
2021/08/15 09:41:51;;;;;;;3.95;2.72;;;;;;;42.26;20.52;94994.97;10413811;28;20026;-89
2021/08/15 09:47:08;;;;;;;3.85;2.50;;;;;;;42.99;19.24;94987.38;10412417;28;20018;-90
2021/08/15 09:52:14;;;;;;;5.03;2.40;;;;;;;42.46;19.89;94982.31;10414053;28;20130;-89
2021/08/15 09:57:32;;;;;;;2.90;2.30;;;;;;;43.26;18.86;94976.38;10424556;28;20028;-89
2021/08/15 10:02:32;;;;;;;4.90;2.15;;;;;;;44.12;18.12;94960.47;10422204;28;20036;-90
2021/08/15 10:07:33;;;;;;;4.38;2.70;;;;;;;44.40;18.57;94956.56;10410144;28;20036;-88
2021/08/15 10:12:34;;;;;;;4.38;2.42;;;;;;;45.90;17.09;94951.78;10411339;28;20087;-89
2021/08/15 10:17:37;;;;;;;4.80;2.47;;;;;;;45.38;17.74;94941.91;10412719;28;20475;-88
2021/08/15 10:22:39;;;;;;;12.25;8.73;;;;;;;44.02;18.14;94944.88;10412957;28;20085;-89
2021/08/15 10:27:42;;;;;;;4.65;2.80;;;;;;;44.78;18.35;94944.25;10415426;28;20017;-90
2021/08/15 10:32:55;;;;;;;5.40;2.92;;;;;;;45.61;17.18;94942.16;10411410;28;20076;-89
2021/08/15 10:37:58;;;;;;;2.60;2.25;;;;;;;45.52;17.56;94933.81;10417186;28;20137;-89
2021/08/15 10:42:59;;;;;;;4.40;2.57;;;;;;;45.12;17.58;94927.69;10409566;28;20075;-89
2021/08/15 10:48:05;;;;;;;5.77;2.63;;;;;;;44.08;18.10;94919.47;10410328;28;20017;-89
2021/08/15 10:53:28;;;;;;;7.28;2.38;;;;;;;44.71;18.37;94914.28;10411072;28;20480;-88
2021/08/15 10:58:44;;;;;;;5.95;2.88;;;;;;;42.84;18.76;94910.22;10408694;28;20030;-89
2021/08/15 11:03:48;;;;;;;10.70;3.13;;;;;;;43.88;18.09;94906.81;10410003;28;20480;-90
2021/08/15 11:08:48;;;;;;;4.40;2.40;;;;;;;43.92;18.45;94900.94;10409548;28;20471;-90
2021/08/15 11:14:17;;;;;;;4.37;2.43;;;;;;;42.98;18.47;94894.56;10408497;28;20030;-89
2021/08/15 11:19:18;;;;;;;3.67;2.60;;;;;;;40.95;20.16;94889.13;10407903;28;20518;-89
2021/08/15 11:24:24;;;;;;;5.37;3.37;;;;;;;38.10;23.28;94891.25;10408276;28;20049;-88
2021/08/15 11:29:25;;;;;;;6.30;3.38;;;;;;;36.42;24.33;94886.34;10409775;28;20053;-88
2021/08/15 11:34:26;;;;;;;5.68;4.00;;;;;;;34.76;26.33;94878.69;10408193;28;20057;-89
2021/08/15 11:39:38;;;;;;;11.88;3.45;;;;;;;33.51;26.95;94869.09;10410209;28;20110;-88
2021/08/15 11:44:52;;;;;;;4.90;3.92;;;;;;;32.27;28.08;94875.63;10410883;28;20032;-88
2021/08/15 11:49:53;;;;;;;9.48;4.25;;;;;;;31.74;29.65;94866.50;10409245;28;20029;-88
2021/08/15 11:54:54;;;;;;;5.00;3.80;;;;;;;31.69;29.22;94859.34;10411502;28;20369;-89
2021/08/15 12:00:04;;;;;;;7.80;3.67;;;;;;;31.55;30.17;94853.88;10409903;28;20025;-89
2021/08/15 12:05:05;;;;;;;7.25;3.58;;;;;;;31.56;29.94;94849.91;10411444;28;20025;-88
2021/08/15 12:10:30;;;;;;;4.72;3.35;;;;;;;31.57;30.45;94843.16;10419573;28;20021;-88
2021/08/15 12:15:30;;;;;;;6.47;3.67;;;;;;;31.89;29.74;94836.59;10408176;28;20103;-89
2021/08/15 12:20:31;;;;;;;4.73;3.33;;;;;;;31.86;29.31;94832.66;10408601;28;20048;-88
2021/08/15 12:25:31;;;;;;;5.40;3.95;;;;;;;31.98;28.77;94832.13;10407895;28;20642;-89
2021/08/15 12:30:32;;;;;;;7.35;3.70;;;;;;;31.85;28.84;94829.06;10415775;28;20365;-89
2021/08/15 12:35:32;;;;;;;7.38;4.07;;;;;;;31.86;29.73;94824.31;10417317;28;20046;-89
2021/08/15 12:40:33;;;;;;;4.80;3.27;;;;;;;31.55;30.04;94821.31;10420318;28;20063;-89
2021/08/15 12:45:40;;;;;;;7.10;4.20;;;;;;;31.56;29.84;94817.34;10412898;28;20314;-89
2021/08/15 12:50:40;;;;;;;5.10;3.30;;;;;;;31.71;28.78;94806.19;10415125;28;20299;-88
2021/08/15 12:55:41;;;;;;;10.65;3.92;;;;;;;31.68;28.92;94808.56;10414861;28;20136;-88
2021/08/15 13:00:50;;;;;;;7.43;3.80;;;;;;;31.66;29.40;94801.84;10413549;28;20029;-88
2021/08/15 13:05:50;;;;;;;5.18;3.63;;;;;;;31.71;29.07;94792.28;10415924;28;20080;-88
2021/08/15 13:10:51;;;;;;;6.35;4.00;;;;;;;31.57;29.89;94798.72;10418379;28;20103;-91
2021/08/15 13:15:53;;;;;;;8.77;4.37;;;;;;;31.37;29.30;94793.69;10419666;28;20036;-92
2021/08/15 13:20:54;;;;;;;7.75;4.28;;;;;;;31.33;28.46;94790.16;10420206;28;20044;-92
2021/08/15 13:25:54;;;;;;;4.93;3.63;;;;;;;31.32;28.70;94777.44;10430613;28;20033;-93
2021/08/15 13:30:54;;;;;;;3.85;3.13;;;;;;;31.33;28.88;94773.50;10469586;28;20034;-92
2021/08/15 13:35:55;;;;;;;7.85;3.92;;;;;;;31.53;29.20;94766.16;10465444;28;20081;-92
2021/08/15 13:40:57;;;;;;;3.67;3.27;;;;;;;31.60;28.96;94761.81;10446275;28;20025;-92
2021/08/15 13:45:57;;;;;;;4.65;3.30;;;;;;;31.64;28.88;94757.78;10427132;28;20026;-91
2021/08/15 13:50:58;;;;;;;4.10;3.22;;;;;;;31.32;28.76;94760.78;10420829;28;20033;-90
2021/08/15 13:55:59;;;;;;;4.00;3.10;;;;;;;31.18;28.61;94756.91;10417691;28;20662;-91
2021/08/15 14:00:59;;;;;;;5.78;3.30;;;;;;;30.98;28.43;94750.28;10430140;28;20021;-92
2021/08/15 14:06:00;;;;;;;4.22;3.03;;;;;;;30.66;28.76;94754.00;10428161;28;20558;-93
2021/08/15 14:11:01;;;;;;;3.55;2.92;;;;;;;30.45;29.61;94754.84;10420742;28;20030;-89
2021/08/15 14:16:02;;;;;;;4.22;3.30;;;;;;;30.44;29.97;94747.75;10417213;28;20086;-88
2021/08/15 14:21:02;;;;;;;6.25;3.83;;;;;;;30.32;30.16;94740.63;10410290;28;20125;-88
2021/08/15 14:26:03;;;;;;;4.07;3.47;;;;;;;30.39;29.59;94737.81;10409389;28;20095;-88
2021/08/15 14:31:03;;;;;;;6.68;3.42;;;;;;;30.26;29.58;94743.00;10409735;28;20048;-89
2021/08/15 14:36:05;;;;;;;4.57;3.33;;;;;;;30.27;30.08;94730.72;10410032;28;20053;-87
2021/08/15 14:41:05;;;;;;;4.68;3.65;;;;;;;30.38;29.75;94744.56;10412420;28;20663;-88
2021/08/15 14:46:07;;;;;;;5.10;3.15;;;;;;;30.35;29.04;94737.03;10412108;28;20021;-89
2021/08/15 14:51:08;;;;;;;4.05;2.95;;;;;;;30.41;28.33;94732.66;10416982;28;20021;-89
2021/08/15 14:56:08;;;;;;;4.43;3.08;;;;;;;30.38;28.11;94733.47;10411442;28;20135;-88
2021/08/15 15:01:09;;;;;;;4.73;3.07;;;;;;;30.33;27.66;94745.75;10412073;28;20590;-89
2021/08/15 15:06:09;;;;;;;6.00;3.53;;;;;;;30.26;28.59;94739.44;10410446;28;20359;-89
2021/08/15 15:11:10;;;;;;;5.57;3.03;;;;;;;30.28;27.66;94734.28;10410706;28;20021;-89
2021/08/15 15:16:10;;;;;;;3.57;2.90;;;;;;;30.25;27.57;94721.22;10411021;28;20447;-88
2021/08/15 15:21:10;;;;;;;4.13;3.30;;;;;;;30.23;27.97;94729.19;10421684;28;20282;-88
2021/08/15 15:26:11;;;;;;;5.73;2.70;;;;;;;30.19;27.61;94717.31;10420571;28;20029;-94
2021/08/15 15:31:11;;;;;;;4.27;3.00;;;;;;;30.13;27.92;94722.47;10413609;28;20026;-92
2021/08/15 15:36:13;;;;;;;5.15;2.95;;;;;;;30.06;27.94;94714.97;10413143;28;20430;-92
2021/08/15 15:41:16;;;;;;;4.72;2.65;;;;;;;29.87;27.11;94718.94;10412247;28;20035;-93
2021/08/15 15:46:23;;;;;;;4.35;2.80;;;;;;;29.90;27.22;94714.59;10412436;28;20435;-92
2021/08/15 15:51:23;;;;;;;;;;;;;;;29.79;27.98;94709.84;10399182;28;20053;-93
2021/08/15 15:56:24;;;;;;;2.53;2.23;;;;;;;29.69;27.64;94694.00;10416198;28;20044;-94
2021/08/15 16:01:26;;;;;;;3.55;2.97;;;;;;;29.63;28.32;94692.84;10395776;28;20033;-93
2021/08/15 16:06:26;;;;;;;5.43;2.85;;;;;;;29.58;27.03;94701.56;10410376;28;20033;-93
2021/08/15 16:11:27;;;;;;;8.07;2.90;;;;;;;29.43;27.05;94693.25;10410991;28;20079;-93
2021/08/15 16:16:27;;;;;;;5.43;2.37;;;;;;;29.28;27.26;94698.00;10411751;28;20028;-91
2021/08/15 16:21:27;;;;;;;4.38;3.15;;;;;;;29.29;30.58;94696.81;10417002;28;20059;-92
2021/08/15 16:26:30;;;;;;;16.10;3.50;;;;;;;29.27;31.26;94699.19;10453431;28;20112;-92
2021/08/15 16:31:31;;;;;;;8.02;3.53;;;;;;;29.36;30.67;94687.72;10453458;28;20371;-92
2021/08/15 16:36:33;;;;;;;8.20;3.10;;;;;;;29.60;30.15;94690.88;10431476;28;20475;-93
2021/08/15 16:41:34;;;;;;;5.47;3.30;;;;;;;29.74;30.04;94688.09;10441106;28;20484;-92
2021/08/15 16:46:34;;;;;;;7.80;3.60;;;;;;;29.53;30.75;94688.09;10445350;28;20021;-95
2021/08/15 16:51:35;;;;;;;5.50;3.40;;;;;;;29.51;31.21;94693.25;10455263;28;20093;-94
2021/08/15 16:56:35;;;;;;;5.15;3.35;;;;;;;29.42;31.95;94691.69;10463352;28;20052;-94
2021/08/15 17:01:36;;;;;;;5.38;3.78;;;;;;;29.36;32.51;94698.81;10414224;28;20079;-95
2021/08/15 17:06:36;;;;;;;4.80;3.23;;;;;;;29.16;33.10;94701.13;10413282;28;20113;-95
2021/08/15 17:11:37;;;;;;;7.33;3.63;;;;;;;28.89;33.00;94706.25;10412999;28;20314;-94
2021/08/15 17:16:37;;;;;;;5.10;3.72;;;;;;;28.71;33.51;94704.22;10421177;28;20311;-90
2021/08/15 17:21:39;;;;;;;7.57;3.80;;;;;;;28.57;33.90;94717.97;10416314;28;20025;-89
2021/08/15 17:26:39;;;;;;;7.32;3.58;;;;;;;28.33;34.44;94722.22;10417558;28;20029;-89
2021/08/15 17:31:40;;;;;;;7.82;4.72;;;;;;;28.22;34.87;94724.97;10417147;28;20021;-89
2021/08/15 17:36:44;;;;;;;9.05;4.10;;;;;;;28.12;34.69;94727.28;10456304;28;20064;-93
2021/08/15 17:41:45;;;;;;;12.88;3.83;;;;;;;27.93;35.28;94731.06;10458054;28;20119;-88
2021/08/15 17:46:45;;;;;;;5.30;3.73;;;;;;;27.79;36.56;94739.28;10459054;28;20115;-87
2021/08/15 17:51:46;;;;;;;6.53;4.03;;;;;;;27.59;37.64;94742.28;10458196;28;20025;-88
2021/08/15 17:56:46;;;;;;;6.57;4.47;;;;;;;27.38;37.82;94745.69;10459445;28;20020;-89
2021/08/15 18:01:47;;;;;;;8.32;4.20;;;;;;;27.26;38.19;94751.44;10459852;28;20340;-89
2021/08/15 18:06:51;;;;;;;11.57;5.13;;;;;;;27.18;38.69;94750.59;10458988;28;20575;-90
2021/08/15 18:11:52;;;;;;;6.80;4.70;;;;;;;27.06;39.55;94759.94;10464495;28;20259;-87
2021/08/15 18:16:52;;;;;;;7.87;5.60;;;;;;;26.99;39.71;94770.09;10468993;28;20020;-90
2021/08/15 18:21:53;;;;;;;8.57;5.23;;;;;;;26.82;41.51;94774.25;10457605;28;20025;-89
2021/08/15 18:26:53;;;;;;;8.27;4.63;;;;;;;26.60;41.15;94787.78;10456011;28;20263;-89
2021/08/15 18:31:54;;;;;;;14.68;5.88;;;;;;;26.47;41.56;94792.75;10428100;28;20017;-89
2021/08/15 18:36:58;;;;;;;9.45;5.22;;;;;;;26.29;42.18;94802.72;10457390;28;20546;-90
2021/08/15 18:41:59;;;;;;;10.38;6.05;;;;;;;26.10;42.66;94805.22;10456979;28;20028;-90
2021/08/15 18:47:00;;;;;;;11.55;5.25;;;;;;;26.00;43.21;94814.09;10457118;28;20028;-89
2021/08/15 18:52:00;;;;;;;14.47;7.17;;;;;;;25.90;44.09;94825.75;10456349;28;20437;-89
2021/08/15 18:57:02;;;;;;;10.40;6.47;;;;;;;25.85;46.40;94829.59;10455158;28;20021;-89
2021/08/15 19:02:02;;;;;;;12.82;6.97;;;;;;;25.71;46.01;94829.38;10457466;28;20017;-89
2021/08/15 19:07:03;;;;;;;11.18;6.25;;;;;;;25.59;47.34;94825.66;10462495;28;20387;-88
2021/08/15 19:12:04;;;;;;;11.70;7.25;;;;;;;25.34;47.72;94827.16;10455443;28;20023;-88
2021/08/15 19:17:05;;;;;;;15.38;7.40;;;;;;;25.05;48.39;94826.63;10454492;28;20028;-88
2021/08/15 19:22:05;;;;;;;9.70;6.77;;;;;;;24.95;51.47;94828.03;10454113;28;20029;-89
2021/08/15 19:27:06;;;;;;;9.15;5.90;;;;;;;24.79;49.42;94824.56;10453393;28;20469;-87
2021/08/15 19:32:07;;;;;;;8.25;5.57;;;;;;;24.73;48.98;94824.06;10454274;28;20379;-89
2021/08/15 19:37:07;;;;;;;13.10;6.28;;;;;;;24.62;51.46;94823.03;10419212;28;20140;-94
2021/08/15 19:42:08;;;;;;;11.67;5.20;;;;;;;24.45;49.39;94821.47;10415899;28;20171;-92
2021/08/15 19:47:08;;;;;;;10.30;5.67;;;;;;;24.31;50.80;94833.75;10417193;28;20032;-91
2021/08/15 19:52:09;;;;;;;8.20;5.43;;;;;;;24.18;50.55;94824.84;10417067;28;20291;-93
2021/08/15 19:57:09;;;;;;;9.87;5.53;;;;;;;24.08;51.14;94822.63;10417422;28;20717;-93
2021/08/15 20:02:09;;;;;;;5.97;4.95;;;;;;;23.99;51.42;94828.34;10418201;28;20025;-93
2021/08/15 20:07:10;;;;;;;7.60;5.30;;;;;;;23.93;51.35;94827.03;10416701;28;20025;-93
2021/08/15 20:12:10;;;;;;;11.32;4.55;;;;;;;23.87;51.23;94815.50;10415816;28;20021;-92
2021/08/15 20:17:11;;;;;;;6.20;4.67;;;;;;;23.73;53.26;94831.59;10423616;28;20028;-92
2021/08/15 20:22:11;;;;;;;5.88;5.00;;;;;;;23.41;58.09;94828.06;10416438;28;20294;-92
2021/08/15 20:27:12;;;;;;;9.57;5.00;;;;;;;22.97;61.24;94832.41;10414737;28;20022;-94
2021/08/15 20:32:12;;;;;;;6.43;4.53;;;;;;;22.78;63.22;94843.22;10413860;28;20309;-93
2021/08/15 20:37:13;;;;;;;7.57;5.07;;;;;;;22.59;64.52;94838.38;10413566;28;20049;-92
2021/08/15 20:42:13;;;;;;;6.15;5.10;;;;;;;22.55;64.88;94841.03;10412010;28;20276;-91
2021/08/15 20:47:15;;;;;;;8.80;5.20;;;;;;;22.50;65.50;94846.75;10412206;28;20057;-92
2021/08/15 20:52:16;;;;;;;7.82;5.65;;;;;;;22.59;65.23;94847.41;10421612;28;20029;-93
2021/08/15 20:57:16;;;;;;;7.60;5.30;;;;;;;22.61;65.09;94847.06;10420414;28;20025;-93
2021/08/15 21:02:19;;;;;;;10.00;5.13;;;;;;;22.69;65.16;94851.59;10420818;28;20794;-93
2021/08/15 21:07:19;;;;;;;9.30;4.88;;;;;;;22.63;66.14;94852.97;10420823;28;20028;-93
2021/08/15 21:12:19;;;;;;;9.77;5.53;;;;;;;22.46;67.63;94856.78;10433156;28;20016;-88
2021/08/15 21:17:20;;;;;;;13.35;6.07;;;;;;;22.34;69.20;94846.66;10418328;28;20272;-89
2021/08/15 21:22:20;;;;;;;7.57;5.97;;;;;;;22.30;70.38;94852.00;10417837;28;20048;-88
2021/08/15 21:27:21;;;;;;;7.90;5.00;;;;;;;22.10;71.84;94847.47;10418478;28;20488;-88
2021/08/15 21:32:21;;;;;;;7.63;5.13;;;;;;;22.00;72.48;94848.75;10422160;28;20410;-89
2021/08/15 21:37:21;;;;;;;8.57;5.30;;;;;;;22.01;72.16;94856.59;10457744;28;20041;-86
2021/08/15 21:42:22;;;;;;;7.63;6.00;;;;;;;21.96;72.89;94858.78;10457976;28;20021;-88
2021/08/15 21:47:22;;;;;;;10.88;5.78;;;;;;;21.99;73.46;94855.34;10458316;28;20091;-86
2021/08/15 21:52:23;;;;;;;8.48;6.07;;;;;;;22.01;74.06;94861.28;10447934;28;20021;-87
2021/08/15 21:57:23;;;;;;;7.55;4.95;;;;;;;21.82;74.81;94859.94;10419010;28;20453;-87
2021/08/15 22:02:26;;;;;;;8.57;5.72;;;;;;;21.73;76.36;94878.38;10419762;28;20037;-86
2021/08/15 22:07:27;;;;;;;7.45;5.40;;;;;;;21.75;76.08;94875.31;10416749;28;20036;-89
2021/08/15 22:12:27;;;;;;;7.82;5.82;;;;;;;21.72;77.54;94873.25;10415526;28;20025;-88
2021/08/15 22:17:28;;;;;;;8.40;5.30;;;;;;;21.77;76.28;94870.28;10414537;28;20028;-89
2021/08/15 22:22:29;;;;;;;7.17;5.57;;;;;;;21.63;76.80;94863.22;10414636;28;20029;-90
2021/08/15 22:27:29;;;;;;;6.85;5.35;;;;;;;21.66;77.65;94850.81;10413759;28;20271;-87
2021/08/15 22:32:30;;;;;;;7.75;5.43;;;;;;;21.51;80.62;94855.75;10419483;28;20468;-88
2021/08/15 22:37:30;;;;;;;11.77;6.57;;;;;;;21.27;83.27;94862.00;10454657;28;20707;-88
2021/08/15 22:42:31;;;;;;;9.33;6.07;;;;;;;21.03;84.91;94854.53;10455325;28;20287;-88
2021/08/15 22:47:31;;;;;;;7.63;5.97;;;;;;;20.85;87.21;94859.38;10454351;28;20282;-88
2021/08/15 22:52:32;;;;;;;7.82;6.07;;;;;;;20.81;87.66;94852.97;10457514;28;20445;-87
2021/08/15 22:57:32;;;;;;;16.88;6.75;;;;;;;21.07;84.52;94860.13;10455656;28;20032;-88
2021/08/15 23:02:33;;;;;;;9.52;5.70;;;;;;;21.29;83.31;94865.19;10454462;28;20415;-88
2021/08/15 23:07:38;;;;;;;7.63;6.00;;;;;;;21.47;81.87;94856.78;10455612;28;20091;-88
2021/08/15 23:12:39;;;;;;;10.40;6.35;;;;;;;21.60;82.37;94857.63;10454024;28;20040;-88
2021/08/15 23:17:41;;;;;;;15.88;5.55;;;;;;;21.44;83.70;94852.00;10458611;28;20499;-88